createdAt,value
2022-10-14T00:00:21.316Z,30.10
2022-10-14T00:01:21.198Z,30.10
2022-10-14T00:02:21.530Z,31.50
2022-10-14T00:03:21.309Z,31.20
2022-10-14T00:04:21.345Z,30.80
2022-10-14T00:05:21.423Z,29.50
2022-10-14T00:06:21.366Z,29.00
2022-10-14T00:07:21.288Z,28.30
2022-10-14T00:08:21.105Z,28.70
2022-10-14T00:09:21.158Z,28.40
2022-10-14T00:10:21.078Z,33.90
2022-10-14T00:11:21.042Z,34.20
2022-10-14T00:12:21.146Z,34.30
2022-10-14T00:13:21.088Z,35.70
2022-10-14T00:14:21.030Z,36.60
2022-10-14T00:15:20.950Z,32.90
2022-10-14T00:16:21.243Z,34.30
2022-10-14T00:17:21.198Z,33.30
2022-10-14T00:18:21.062Z,31.00
2022-10-14T00:19:20.921Z,29.10
2022-10-14T00:20:20.889Z,30.30
2022-10-14T00:21:21.300Z,30.50
2022-10-14T00:22:20.856Z,33.70
2022-10-14T00:23:20.872Z,30.60
2022-10-14T00:24:20.852Z,31.70
2022-10-14T00:25:20.832Z,30.40
2022-10-14T00:26:20.897Z,29.30
2022-10-14T00:27:21.265Z,29.20
2022-10-14T00:28:20.845Z,28.00
2022-10-14T00:29:20.848Z,29.00
2022-10-14T00:30:20.923Z,29.90
2022-10-14T00:31:20.756Z,28.90
2022-10-14T00:32:20.775Z,29.10
2022-10-14T00:33:20.713Z,30.50
2022-10-14T00:34:21.146Z,29.60
2022-10-14T00:35:20.781Z,29.50
2022-10-14T00:36:20.718Z,28.10
2022-10-14T00:37:20.964Z,29.00
2022-10-14T00:38:20.802Z,28.30
2022-10-14T00:39:20.768Z,26.90
2022-10-14T00:40:20.623Z,26.60
2022-10-14T00:41:20.647Z,28.30
2022-10-14T00:42:21.026Z,27.80
2022-10-14T00:43:21.310Z,28.20
2022-10-14T00:44:20.711Z,26.40
2022-10-14T00:45:20.642Z,28.20
2022-10-14T00:46:20.575Z,29.20
2022-10-14T00:47:20.800Z,28.40
2022-10-14T00:48:20.520Z,31.20
2022-10-14T00:49:20.515Z,33.50
2022-10-14T00:50:20.734Z,28.90
2022-10-14T00:51:20.588Z,29.50
2022-10-14T00:52:20.519Z,34.90
2022-10-14T00:53:20.472Z,28.60
2022-10-14T00:54:20.529Z,29.10
2022-10-14T00:55:20.451Z,29.90
2022-10-14T00:56:20.506Z,30.70
2022-10-14T00:57:20.712Z,28.10
2022-10-14T00:58:20.425Z,30.40
2022-10-14T00:59:21.500Z,28.20
2022-10-14T01:00:20.455Z,29.20
2022-10-14T01:01:20.442Z,32.70
2022-10-14T01:02:20.372Z,31.80
2022-10-14T01:03:20.489Z,32.60
2022-10-14T01:04:20.320Z,32.90
2022-10-14T01:05:20.916Z,32.70
2022-10-14T01:06:20.285Z,32.30
2022-10-14T01:07:20.701Z,29.50
2022-10-14T01:08:20.381Z,31.20
2022-10-14T01:09:20.285Z,31.80
2022-10-14T01:10:20.266Z,31.20
2022-10-14T01:11:20.248Z,30.20
2022-10-14T01:12:29.438Z,30.20
2022-10-14T01:13:20.205Z,29.30
2022-10-14T01:14:20.228Z,30.50
2022-10-14T01:15:20.195Z,31.50
2022-10-14T01:16:20.185Z,30.20
2022-10-14T01:17:20.210Z,29.30
2022-10-14T01:18:20.162Z,28.90
2022-10-14T01:19:20.171Z,29.30
2022-10-14T01:20:20.155Z,27.60
2022-10-14T01:21:20.155Z,29.10
2022-10-14T01:22:22.423Z,27.00
2022-10-14T01:23:20.104Z,27.70
2022-10-14T01:24:20.085Z,28.00
2022-10-14T01:25:20.063Z,27.20
2022-10-14T01:26:20.071Z,29.60
2022-10-14T01:27:20.035Z,28.60
2022-10-14T01:28:20.145Z,31.60
2022-10-14T01:29:20.003Z,31.70
2022-10-14T01:30:20.014Z,31.70
2022-10-14T01:31:19.984Z,32.20
2022-10-14T01:32:20.392Z,31.80
2022-10-14T01:33:19.943Z,31.00
2022-10-14T01:34:19.950Z,31.00
2022-10-14T01:35:19.934Z,30.50
2022-10-14T01:36:19.935Z,30.50
2022-10-14T01:37:19.900Z,31.70
2022-10-14T01:38:19.905Z,32.80
2022-10-14T01:39:19.871Z,34.80
2022-10-14T01:40:19.868Z,31.90
2022-10-14T01:41:19.883Z,31.20
2022-10-14T01:42:20.164Z,32.00
2022-10-14T01:43:19.851Z,34.30
2022-10-14T01:44:19.800Z,34.20
2022-10-14T01:45:20.047Z,34.30
2022-10-14T01:46:19.779Z,33.80
2022-10-14T01:47:20.244Z,33.40
2022-10-14T01:48:20.199Z,35.60
2022-10-14T01:49:20.663Z,33.80
2022-10-14T01:50:20.597Z,38.20
2022-10-14T01:51:20.485Z,34.20
2022-10-14T01:52:19.996Z,36.10
2022-10-14T01:53:19.958Z,34.60
2022-10-14T01:54:19.748Z,32.90
2022-10-14T01:55:19.723Z,32.00
2022-10-14T01:56:19.716Z,34.00
2022-10-14T01:57:19.630Z,34.30
2022-10-14T01:58:19.710Z,33.40
2022-10-14T01:59:19.591Z,33.60
2022-10-14T02:00:19.626Z,33.10
2022-10-14T02:01:19.624Z,33.30
2022-10-14T02:02:19.795Z,33.30
2022-10-14T02:03:19.592Z,30.60
2022-10-14T02:04:19.547Z,31.20
2022-10-14T02:05:19.531Z,30.20
2022-10-14T02:06:19.543Z,30.80
2022-10-14T02:07:19.530Z,30.90
2022-10-14T02:08:19.614Z,31.10
2022-10-14T02:09:19.472Z,31.50
2022-10-14T02:10:19.476Z,34.40
2022-10-14T02:11:19.499Z,32.60
2022-10-14T02:12:19.694Z,34.40
2022-10-14T02:13:19.476Z,33.40
2022-10-14T02:14:19.436Z,32.50
2022-10-14T02:15:19.433Z,31.80
2022-10-14T02:16:19.436Z,30.00
2022-10-14T02:17:19.395Z,28.30
2022-10-14T02:18:19.394Z,29.50
2022-10-14T02:19:19.425Z,30.40
2022-10-14T02:20:19.346Z,28.30
2022-10-14T02:21:19.380Z,28.00
2022-10-14T02:22:19.682Z,32.00
2022-10-14T02:23:19.329Z,31.20
2022-10-14T02:24:19.355Z,30.40
2022-10-14T02:25:19.324Z,31.30
2022-10-14T02:26:19.285Z,31.70
2022-10-14T02:27:19.295Z,30.50
2022-10-14T02:28:19.363Z,29.40
2022-10-14T02:29:19.286Z,27.70
2022-10-14T02:30:19.241Z,28.00
2022-10-14T02:31:19.260Z,27.40
2022-10-14T02:32:19.554Z,29.10
2022-10-14T02:33:19.157Z,28.00
2022-10-14T02:34:19.148Z,28.00
2022-10-14T02:35:19.150Z,29.60
2022-10-14T02:36:19.145Z,28.60
2022-10-14T02:37:19.151Z,28.60
2022-10-14T02:38:19.102Z,29.80
2022-10-14T02:39:19.086Z,26.30
2022-10-14T02:40:19.094Z,26.70
2022-10-14T02:41:19.065Z,27.50
2022-10-14T02:42:19.361Z,27.50
2022-10-14T02:43:19.037Z,29.20
2022-10-14T02:44:19.035Z,28.30
2022-10-14T02:45:19.042Z,27.10
2022-10-14T02:46:18.998Z,28.10
2022-10-14T02:47:18.986Z,28.20
2022-10-14T02:48:19.125Z,27.40
2022-10-14T02:49:18.963Z,26.00
2022-10-14T02:50:18.955Z,25.90
2022-10-14T02:51:18.920Z,26.80
2022-10-14T02:52:19.176Z,27.30
2022-10-14T02:53:18.901Z,27.30
2022-10-14T02:54:18.884Z,27.80
2022-10-14T02:55:18.872Z,27.10
2022-10-14T02:56:18.878Z,26.10
2022-10-14T02:57:18.863Z,26.50
2022-10-14T02:58:18.872Z,27.50
2022-10-14T02:59:18.830Z,24.90
2022-10-14T03:00:18.828Z,26.30
2022-10-14T03:01:18.866Z,30.10
2022-10-14T03:02:19.015Z,28.20
2022-10-14T03:03:18.813Z,26.70
2022-10-14T03:04:18.971Z,28.90
2022-10-14T03:05:19.537Z,27.60
2022-10-14T03:06:18.747Z,27.40
2022-10-14T03:07:18.729Z,27.10
2022-10-14T03:08:18.720Z,26.30
2022-10-14T03:09:18.715Z,26.40
2022-10-14T03:10:18.718Z,27.00
2022-10-14T03:11:18.671Z,27.10
2022-10-14T03:12:18.860Z,28.40
2022-10-14T03:13:18.632Z,27.60
2022-10-14T03:14:18.667Z,27.90
2022-10-14T03:15:18.605Z,27.60
2022-10-14T03:16:18.619Z,28.30
2022-10-14T03:17:18.606Z,27.00
2022-10-14T03:18:18.591Z,27.70
2022-10-14T03:19:18.550Z,28.20
2022-10-14T03:20:18.546Z,28.00
2022-10-14T03:21:18.544Z,28.30
2022-10-14T03:22:18.749Z,28.10
2022-10-14T03:23:18.517Z,28.10
2022-10-14T03:24:18.544Z,27.50
2022-10-14T03:25:18.475Z,28.10
2022-10-14T03:26:18.496Z,25.10
2022-10-14T03:27:18.452Z,25.60
2022-10-14T03:28:18.498Z,24.90
2022-10-14T03:29:18.444Z,24.80
2022-10-14T03:30:18.448Z,24.10
2022-10-14T03:31:18.409Z,23.90
2022-10-14T03:32:18.642Z,23.80
2022-10-14T03:33:20.522Z,25.00
2022-10-14T03:34:18.362Z,24.80
2022-10-14T03:35:18.365Z,25.50
2022-10-14T03:36:18.340Z,24.30
2022-10-14T03:37:18.348Z,24.60
2022-10-14T03:38:18.320Z,23.80
2022-10-14T03:39:18.319Z,23.70
2022-10-14T03:40:18.323Z,24.20
2022-10-14T03:41:18.267Z,22.60
2022-10-14T03:42:18.348Z,23.80
2022-10-14T03:43:18.247Z,24.80
2022-10-14T03:44:18.251Z,24.00
2022-10-14T03:45:18.224Z,23.90
2022-10-14T03:46:18.217Z,24.60
2022-10-14T03:47:18.208Z,24.90
2022-10-14T03:48:18.196Z,24.40
2022-10-14T03:49:18.158Z,23.20
2022-10-14T03:50:18.193Z,24.70
2022-10-14T03:51:18.158Z,24.20
2022-10-14T03:52:18.296Z,25.00
2022-10-14T03:53:18.119Z,24.30
2022-10-14T03:54:18.102Z,23.50
2022-10-14T03:55:18.082Z,24.30
2022-10-14T03:56:18.080Z,24.00
2022-10-14T03:57:18.069Z,23.50
2022-10-14T03:58:18.063Z,24.50
2022-10-14T03:59:18.028Z,23.50
2022-10-14T04:00:18.041Z,27.10
2022-10-14T04:01:18.166Z,26.10
2022-10-14T04:02:18.037Z,26.00
2022-10-14T04:03:17.976Z,28.50
2022-10-14T04:04:17.965Z,27.30
2022-10-14T04:05:17.951Z,26.60
2022-10-14T04:06:17.959Z,28.40
2022-10-14T04:07:17.928Z,27.30
2022-10-14T04:08:17.920Z,25.80
2022-10-14T04:09:17.911Z,26.10
2022-10-14T04:10:17.917Z,26.10
2022-10-14T04:11:17.867Z,25.20
2022-10-14T04:12:17.889Z,26.00
2022-10-14T04:13:17.896Z,25.20
2022-10-14T04:14:17.853Z,24.20
2022-10-14T04:15:17.817Z,28.30
2022-10-14T04:16:17.857Z,28.80
2022-10-14T04:17:17.812Z,26.90
2022-10-14T04:18:17.807Z,26.00
2022-10-14T04:19:17.831Z,27.00
2022-10-14T04:20:17.775Z,28.30
2022-10-14T04:21:17.761Z,26.00
2022-10-14T04:22:17.756Z,27.10
2022-10-14T04:23:17.748Z,27.20
2022-10-14T04:24:17.726Z,28.40
2022-10-14T04:25:17.698Z,29.60
2022-10-14T04:26:17.689Z,30.00
2022-10-14T04:27:17.679Z,30.10
2022-10-14T04:28:17.708Z,28.60
2022-10-14T04:29:17.630Z,27.40
2022-10-14T04:30:17.629Z,28.10
2022-10-14T04:31:17.605Z,27.40
2022-10-14T04:32:17.625Z,28.00
2022-10-14T04:33:17.611Z,28.70
2022-10-14T04:34:17.586Z,29.70
2022-10-14T04:35:17.610Z,29.80
2022-10-14T04:36:17.562Z,29.50
2022-10-14T04:37:17.540Z,27.50
2022-10-14T04:38:17.525Z,28.00
2022-10-14T04:39:17.530Z,28.50
2022-10-14T04:40:17.522Z,27.20
2022-10-14T04:41:17.471Z,26.90
2022-10-14T04:42:17.487Z,26.10
2022-10-14T04:43:17.462Z,26.30
2022-10-14T04:44:17.439Z,26.20
2022-10-14T04:45:17.470Z,25.50
2022-10-14T04:46:17.415Z,26.60
2022-10-14T04:47:17.398Z,25.90
2022-10-14T04:48:17.434Z,24.20
2022-10-14T04:49:17.392Z,24.60
2022-10-14T04:50:17.364Z,24.70
2022-10-14T04:51:17.360Z,25.20
2022-10-14T04:52:17.372Z,25.10
2022-10-14T04:53:21.783Z,24.90
2022-10-14T04:54:17.343Z,24.10
2022-10-14T04:55:17.288Z,25.40
2022-10-14T04:56:17.303Z,25.10
2022-10-14T04:57:17.282Z,24.30
2022-10-14T04:58:17.292Z,25.10
2022-10-14T04:59:17.247Z,28.80
2022-10-14T05:00:17.236Z,28.60
2022-10-14T05:01:17.292Z,28.20
2022-10-14T05:02:17.286Z,28.00
2022-10-14T05:03:17.226Z,27.30
2022-10-14T05:04:17.196Z,26.90
2022-10-14T05:05:17.202Z,27.50
2022-10-14T05:06:17.179Z,29.80
2022-10-14T05:07:17.161Z,30.40
2022-10-14T05:08:17.158Z,31.10
2022-10-14T05:09:17.107Z,28.90
2022-10-14T05:10:17.147Z,29.30
2022-10-14T05:11:17.152Z,27.70
2022-10-14T05:12:17.069Z,28.00
2022-10-14T05:13:17.098Z,28.80
2022-10-14T05:14:17.098Z,28.60
2022-10-14T05:15:17.188Z,27.10
2022-10-14T05:16:17.096Z,27.40
2022-10-14T05:17:17.050Z,28.10
2022-10-14T05:18:17.106Z,27.70
2022-10-14T05:19:17.000Z,27.60
2022-10-14T05:20:16.994Z,28.10
2022-10-14T05:21:16.986Z,26.60
2022-10-14T05:22:16.967Z,25.50
2022-10-14T05:23:16.950Z,26.20
2022-10-14T05:24:16.936Z,25.60
2022-10-14T05:25:16.894Z,26.40
2022-10-14T05:26:16.906Z,26.70
2022-10-14T05:27:16.915Z,27.10
2022-10-14T05:28:16.918Z,26.00
2022-10-14T05:29:16.847Z,27.10
2022-10-14T05:30:16.837Z,27.10
2022-10-14T05:31:16.825Z,26.20
2022-10-14T05:32:16.826Z,27.70
2022-10-14T05:33:16.799Z,26.60
2022-10-14T05:34:16.801Z,25.20
2022-10-14T05:35:29.063Z,25.10
2022-10-14T05:36:16.767Z,27.80
2022-10-14T05:37:16.782Z,26.40
2022-10-14T05:38:16.757Z,28.60
2022-10-14T05:39:16.733Z,28.00
2022-10-14T05:40:16.762Z,25.70
2022-10-14T05:41:16.707Z,26.20
2022-10-14T05:42:16.701Z,24.70
2022-10-14T05:43:16.695Z,26.10
2022-10-14T05:44:16.670Z,25.60
2022-10-14T05:45:16.673Z,24.60
2022-10-14T05:46:16.647Z,23.00
2022-10-14T05:47:16.629Z,24.10
2022-10-14T05:48:16.623Z,24.20
2022-10-14T05:49:16.638Z,24.80
2022-10-14T05:50:16.641Z,27.00
2022-10-14T05:51:16.612Z,23.60
2022-10-14T05:52:16.568Z,23.80
2022-10-14T05:53:16.581Z,24.90
2022-10-14T05:54:16.569Z,23.60
2022-10-14T05:55:16.543Z,24.00
2022-10-14T05:56:16.557Z,23.20
2022-10-14T05:57:16.542Z,23.40
2022-10-14T05:58:16.541Z,24.40
2022-10-14T05:59:16.508Z,23.20
2022-10-14T06:00:16.441Z,24.00
2022-10-14T06:01:16.499Z,23.60
2022-10-14T06:02:16.417Z,24.20
2022-10-14T06:03:16.514Z,23.90
2022-10-14T06:04:16.394Z,25.60
2022-10-14T06:05:16.480Z,24.70
2022-10-14T06:06:16.422Z,26.30
2022-10-14T06:07:16.353Z,25.30
2022-10-14T06:08:16.342Z,23.80
2022-10-14T06:09:16.363Z,24.60
2022-10-14T06:10:16.336Z,24.90
2022-10-14T06:11:16.305Z,23.50
2022-10-14T06:12:16.297Z,25.20
2022-10-14T06:13:16.300Z,24.90
2022-10-14T06:14:16.275Z,26.40
2022-10-14T06:15:16.273Z,25.50
2022-10-14T06:16:16.237Z,24.00
2022-10-14T06:17:17.634Z,24.40
2022-10-14T06:18:16.235Z,24.70
2022-10-14T06:19:16.229Z,25.10
2022-10-14T06:20:16.204Z,27.30
2022-10-14T06:21:16.200Z,25.30
2022-10-14T06:22:16.190Z,26.30
2022-10-14T06:23:16.142Z,26.30
2022-10-14T06:24:16.146Z,26.00
2022-10-14T06:25:16.123Z,25.10
2022-10-14T06:26:16.143Z,23.60
2022-10-14T06:27:16.113Z,24.70
2022-10-14T06:28:16.189Z,24.50
2022-10-14T06:29:16.095Z,25.10
2022-10-14T06:30:16.077Z,24.90
2022-10-14T06:31:16.077Z,25.00
2022-10-14T06:32:16.050Z,24.00
2022-10-14T06:33:16.052Z,24.40
2022-10-14T06:34:16.007Z,25.20
2022-10-14T06:35:16.028Z,26.00
2022-10-14T06:36:15.995Z,26.80
2022-10-14T06:37:16.000Z,25.40
2022-10-14T06:38:16.030Z,24.40
2022-10-14T06:39:15.986Z,25.40
2022-10-14T06:40:15.941Z,24.30
2022-10-14T06:41:15.933Z,24.30
2022-10-14T06:42:15.928Z,25.90
2022-10-14T06:43:15.957Z,27.10
2022-10-14T06:44:15.909Z,25.70
2022-10-14T06:45:15.891Z,27.40
2022-10-14T06:46:15.868Z,24.30
2022-10-14T06:47:15.898Z,25.80
2022-10-14T06:48:15.860Z,25.80
2022-10-14T06:49:15.840Z,26.20
2022-10-14T06:50:15.798Z,28.10
2022-10-14T06:51:15.783Z,27.50
2022-10-14T06:52:15.802Z,27.70
2022-10-14T06:53:15.755Z,26.90
2022-10-14T06:54:15.755Z,27.30
2022-10-14T06:55:15.763Z,30.30
2022-10-14T06:56:15.746Z,28.30
2022-10-14T06:57:15.729Z,29.20
2022-10-14T06:58:15.706Z,27.30
2022-10-14T06:59:15.707Z,27.10
2022-10-14T07:00:15.646Z,26.60
2022-10-14T07:01:15.759Z,28.20
2022-10-14T07:02:15.628Z,27.20
2022-10-14T07:03:15.646Z,27.50
2022-10-14T07:04:15.597Z,26.30
2022-10-14T07:05:15.614Z,27.40
2022-10-14T07:06:15.586Z,27.00
2022-10-14T07:07:15.557Z,27.50
2022-10-14T07:08:15.885Z,27.40
2022-10-14T07:09:15.557Z,26.50
2022-10-14T07:10:15.693Z,26.00
2022-10-14T07:11:15.541Z,26.80
2022-10-14T07:12:15.521Z,27.40
2022-10-14T07:13:15.488Z,25.60
2022-10-14T07:14:15.461Z,25.70
2022-10-14T07:15:15.451Z,25.80
2022-10-14T07:16:15.450Z,27.00
2022-10-14T07:17:15.487Z,27.20
2022-10-14T07:18:15.416Z,25.70
2022-10-14T07:19:15.416Z,25.10
2022-10-14T07:20:15.397Z,25.90
2022-10-14T07:21:15.371Z,25.70
2022-10-14T07:22:15.374Z,25.60
2022-10-14T07:23:15.389Z,25.30
2022-10-14T07:24:15.366Z,25.20
2022-10-14T07:25:15.344Z,24.70
2022-10-14T07:26:15.342Z,23.60
2022-10-14T07:27:15.384Z,25.00
2022-10-14T07:28:15.330Z,25.50
2022-10-14T07:29:15.301Z,24.30
2022-10-14T07:30:17.486Z,24.60
2022-10-14T07:31:15.258Z,24.50
2022-10-14T07:32:15.469Z,23.30
2022-10-14T07:33:15.216Z,23.60
2022-10-14T07:34:15.229Z,23.70
2022-10-14T07:35:15.195Z,23.30
2022-10-14T07:36:18.428Z,23.80
2022-10-14T07:37:15.244Z,23.40
2022-10-14T07:38:15.162Z,22.90
2022-10-14T07:39:15.156Z,23.40
2022-10-14T07:40:15.174Z,23.80
2022-10-14T07:41:15.112Z,22.60
2022-10-14T07:42:15.421Z,23.40
2022-10-14T07:43:15.119Z,23.10
2022-10-14T07:44:15.100Z,23.70
2022-10-14T07:45:15.074Z,22.40
2022-10-14T07:46:15.079Z,23.60
2022-10-14T07:47:15.050Z,22.60
2022-10-14T07:48:17.080Z,23.20
2022-10-14T07:49:15.003Z,23.40
2022-10-14T07:50:14.996Z,24.00
2022-10-14T07:51:14.996Z,22.00
2022-10-14T07:52:15.255Z,22.90
2022-10-14T07:53:14.984Z,21.50
2022-10-14T07:54:14.957Z,22.40
2022-10-14T07:55:14.989Z,22.40
2022-10-14T07:56:14.947Z,21.90
2022-10-14T07:57:14.895Z,22.20
2022-10-14T07:58:14.919Z,20.70
2022-10-14T07:59:14.879Z,22.50
2022-10-14T08:00:14.891Z,21.80
2022-10-14T08:01:14.900Z,22.00
2022-10-14T08:02:14.828Z,21.10
2022-10-14T08:03:14.832Z,20.20
2022-10-14T08:04:14.832Z,20.80
2022-10-14T08:06:14.831Z,21.40
2022-10-14T08:07:14.780Z,20.50
2022-10-14T08:08:14.747Z,21.30
2022-10-14T08:09:14.884Z,22.20
2022-10-14T08:10:14.720Z,21.80
2022-10-14T08:11:14.975Z,21.50
2022-10-14T08:12:14.717Z,20.70
2022-10-14T08:13:14.699Z,20.00
2022-10-14T08:14:14.667Z,20.10
2022-10-14T08:15:14.685Z,21.20
2022-10-14T08:16:14.664Z,21.00
2022-10-14T08:17:14.656Z,20.40
2022-10-14T08:18:14.657Z,20.90
2022-10-14T08:19:15.042Z,20.10
2022-10-14T08:20:14.627Z,20.50
2022-10-14T08:21:14.608Z,19.70
2022-10-14T08:22:14.619Z,19.60
2022-10-14T08:23:17.574Z,20.80
2022-10-14T08:24:14.542Z,20.70
2022-10-14T08:25:14.554Z,21.40
2022-10-14T08:26:14.528Z,20.60
2022-10-14T08:27:14.524Z,20.00
2022-10-14T08:28:14.510Z,19.90
2022-10-14T08:29:14.520Z,20.50
2022-10-14T08:30:14.464Z,19.30
2022-10-14T08:31:14.478Z,19.60
2022-10-14T08:32:14.448Z,19.40
2022-10-14T08:33:14.432Z,20.20
2022-10-14T08:34:14.418Z,18.10
2022-10-14T08:35:14.433Z,16.90
2022-10-14T08:36:14.399Z,18.70
2022-10-14T08:37:14.391Z,17.50
2022-10-14T08:38:14.384Z,17.60
2022-10-14T08:39:14.388Z,17.70
2022-10-14T08:40:14.357Z,16.40
2022-10-14T08:41:14.343Z,16.30
2022-10-14T08:42:14.305Z,15.90
2022-10-14T08:43:14.320Z,16.50
2022-10-14T08:44:14.291Z,16.10
2022-10-14T08:45:14.298Z,15.80
2022-10-14T08:46:14.275Z,16.30
2022-10-14T08:47:14.260Z,15.10
2022-10-14T08:48:14.298Z,15.70
2022-10-14T08:49:14.240Z,16.10
2022-10-14T08:50:14.211Z,16.30
2022-10-14T08:51:14.232Z,15.10
2022-10-14T08:52:14.190Z,15.60
2022-10-14T08:53:14.165Z,15.80
2022-10-14T08:54:14.143Z,16.00
2022-10-14T08:55:14.161Z,16.10
2022-10-14T08:56:14.129Z,15.30
2022-10-14T08:57:14.144Z,15.50
2022-10-14T08:58:14.224Z,14.80
2022-10-14T08:59:14.092Z,14.80
2022-10-14T09:00:14.088Z,14.60
2022-10-14T09:01:14.076Z,15.90
2022-10-14T09:02:14.065Z,15.10
2022-10-14T09:03:14.126Z,14.30
2022-10-14T09:04:14.061Z,13.40
2022-10-14T09:05:14.036Z,15.20
2022-10-14T09:06:14.006Z,14.40
2022-10-14T09:07:13.989Z,14.70
2022-10-14T09:08:13.986Z,13.80
2022-10-14T09:09:13.967Z,15.00
2022-10-14T09:10:13.956Z,14.40
2022-10-14T09:11:13.924Z,15.20
2022-10-14T09:12:13.909Z,14.40
2022-10-14T09:13:13.936Z,14.70
2022-10-14T09:14:13.910Z,14.20
2022-10-14T09:15:13.869Z,14.80
2022-10-14T09:16:13.865Z,14.40
2022-10-14T09:17:13.979Z,14.30
2022-10-14T09:18:13.869Z,13.90
2022-10-14T09:19:13.829Z,15.00
2022-10-14T09:20:13.806Z,14.10
2022-10-14T09:21:22.735Z,15.00
2022-10-14T09:22:13.795Z,14.90
2022-10-14T09:23:13.783Z,14.30
2022-10-14T09:24:13.747Z,15.00
2022-10-14T09:25:13.736Z,14.40
2022-10-14T09:26:13.734Z,14.30
2022-10-14T09:27:13.746Z,14.30
2022-10-14T09:28:13.718Z,14.50
2022-10-14T09:29:13.685Z,15.00
2022-10-14T09:30:13.666Z,14.40
2022-10-14T09:31:13.697Z,15.00
2022-10-14T09:32:13.641Z,15.90
2022-10-14T09:33:13.641Z,15.30
2022-10-14T09:34:13.630Z,15.90
2022-10-14T09:35:13.636Z,15.50
2022-10-14T09:36:13.605Z,15.80
2022-10-14T09:37:13.603Z,15.60
2022-10-14T09:38:13.581Z,15.20
2022-10-14T09:39:13.557Z,14.80
2022-10-14T09:40:13.620Z,15.00
2022-10-14T09:41:13.525Z,15.40
2022-10-14T09:42:13.525Z,14.90
2022-10-14T09:43:13.523Z,15.20
2022-10-14T09:44:13.486Z,14.50
2022-10-14T09:45:13.498Z,16.60
2022-10-14T09:46:13.454Z,14.60
2022-10-14T09:47:13.492Z,15.30
2022-10-14T09:48:13.442Z,15.00
2022-10-14T09:49:13.425Z,13.70
2022-10-14T09:50:13.423Z,16.40
2022-10-14T09:51:13.398Z,15.30
2022-10-14T09:52:13.380Z,14.00
2022-10-14T09:53:13.487Z,14.80
2022-10-14T09:54:13.354Z,14.90
2022-10-14T09:55:13.348Z,14.40
2022-10-14T09:56:13.361Z,13.80
2022-10-14T09:57:13.324Z,13.80
2022-10-14T09:58:13.304Z,13.60
2022-10-14T09:59:13.327Z,13.70
2022-10-14T10:00:13.274Z,13.50
2022-10-14T10:01:13.292Z,14.40
2022-10-14T10:02:13.262Z,13.50
2022-10-14T10:03:17.059Z,13.10
2022-10-14T10:04:13.253Z,14.00
2022-10-14T10:05:13.233Z,13.80
2022-10-14T10:06:13.228Z,13.20
2022-10-14T10:07:13.222Z,13.90
2022-10-14T10:08:13.192Z,13.50
2022-10-14T10:09:13.196Z,13.90
2022-10-14T10:10:13.166Z,13.60
2022-10-14T10:11:13.135Z,13.30
2022-10-14T10:12:13.143Z,13.50
2022-10-14T10:13:13.195Z,13.30
2022-10-14T10:14:13.097Z,14.00
2022-10-14T10:15:13.111Z,13.30
2022-10-14T10:16:13.077Z,13.60
2022-10-14T10:17:13.068Z,15.10
2022-10-14T10:18:13.068Z,13.50
2022-10-14T10:19:13.028Z,14.10
2022-10-14T10:20:13.051Z,14.10
2022-10-14T10:21:13.082Z,13.90
2022-10-14T10:22:13.063Z,14.20
2022-10-14T10:23:12.981Z,13.30
2022-10-14T10:24:12.997Z,14.00
2022-10-14T10:25:13.033Z,13.60
2022-10-14T10:26:12.965Z,14.00
2022-10-14T10:27:12.920Z,14.10
2022-10-14T10:28:12.948Z,13.20
2022-10-14T10:29:12.895Z,14.00
2022-10-14T10:30:12.912Z,14.30
2022-10-14T10:31:12.887Z,13.30
2022-10-14T10:32:12.901Z,13.30
2022-10-14T10:33:12.874Z,12.80
2022-10-14T10:34:12.860Z,12.50
2022-10-14T10:35:12.840Z,12.90
2022-10-14T10:36:12.858Z,12.70
2022-10-14T10:37:12.827Z,13.60
2022-10-14T10:38:12.807Z,13.30
2022-10-14T10:39:12.786Z,12.30
2022-10-14T10:40:12.762Z,12.30
2022-10-14T10:41:12.736Z,12.20
2022-10-14T10:42:12.728Z,12.30
2022-10-14T10:43:12.733Z,13.30
2022-10-14T10:44:12.741Z,11.40
2022-10-14T10:45:12.746Z,11.80
2022-10-14T10:46:12.734Z,11.00
2022-10-14T10:47:12.757Z,11.00
2022-10-14T10:48:12.685Z,10.40
2022-10-14T10:49:12.715Z,11.10
2022-10-14T10:50:12.656Z,11.30
2022-10-14T10:51:12.652Z,11.80
2022-10-14T10:52:14.211Z,12.00
2022-10-14T10:53:12.636Z,12.00
2022-10-14T10:54:12.628Z,12.00
2022-10-14T10:55:12.611Z,10.80
2022-10-14T10:56:12.602Z,11.20
2022-10-14T10:57:12.599Z,10.20
2022-10-14T10:58:12.624Z,11.00
2022-10-14T10:59:12.630Z,10.50
2022-10-14T11:00:12.581Z,10.70
2022-10-14T11:01:12.619Z,11.10
2022-10-14T11:02:12.523Z,10.90
2022-10-14T11:03:12.506Z,11.30
2022-10-14T11:04:12.524Z,11.20
2022-10-14T11:05:12.513Z,11.00
2022-10-14T11:06:12.518Z,10.90
2022-10-14T11:07:12.472Z,9.90
2022-10-14T11:08:12.486Z,11.30
2022-10-14T11:09:12.463Z,11.00
2022-10-14T11:10:12.406Z,11.00
2022-10-14T11:11:12.379Z,11.70
2022-10-14T11:12:12.393Z,11.50
2022-10-14T11:13:12.406Z,10.50
2022-10-14T11:14:12.400Z,11.50
2022-10-14T11:15:12.396Z,11.70
2022-10-14T11:16:12.377Z,11.60
2022-10-14T11:17:12.383Z,12.10
2022-10-14T11:18:12.345Z,12.20
2022-10-14T11:19:14.548Z,11.60
2022-10-14T11:20:12.327Z,11.70
2022-10-14T11:21:12.290Z,12.50
2022-10-14T11:22:12.286Z,12.20
2022-10-14T11:23:12.270Z,11.50
2022-10-14T11:24:12.305Z,11.80
2022-10-14T11:25:12.219Z,11.80
2022-10-14T11:26:12.257Z,10.30
2022-10-14T11:27:12.192Z,12.30
2022-10-14T11:28:12.168Z,11.80
2022-10-14T11:29:12.138Z,12.20
2022-10-14T11:30:12.138Z,11.70
2022-10-14T11:31:12.098Z,11.30
2022-10-14T11:32:12.109Z,10.70
2022-10-14T11:33:12.060Z,10.70
2022-10-14T11:34:12.095Z,10.30
2022-10-14T11:35:12.066Z,9.50
2022-10-14T11:36:12.024Z,10.10
2022-10-14T11:37:12.024Z,9.30
2022-10-14T11:38:12.011Z,8.60
2022-10-14T11:39:11.996Z,8.70
2022-10-14T11:40:12.003Z,9.70
2022-10-14T11:41:12.097Z,8.80
2022-10-14T11:42:11.951Z,9.10
2022-10-14T11:43:11.963Z,9.00
2022-10-14T11:44:11.933Z,8.80
2022-10-14T11:45:11.926Z,8.80
2022-10-14T11:46:11.897Z,9.10
2022-10-14T11:47:11.906Z,8.80
2022-10-14T11:48:11.889Z,9.10
2022-10-14T11:49:11.863Z,8.00
2022-10-14T11:50:11.842Z,7.80
2022-10-14T11:51:11.829Z,7.70
2022-10-14T11:52:11.821Z,7.30
2022-10-14T11:53:11.862Z,7.00
2022-10-14T11:54:11.789Z,6.80
2022-10-14T11:55:14.523Z,8.60
2022-10-14T11:56:11.808Z,8.70
2022-10-14T11:57:11.893Z,8.90
2022-10-14T11:58:11.762Z,8.90
2022-10-14T11:59:11.767Z,8.60
2022-10-14T12:00:11.926Z,8.50
2022-10-14T12:01:11.701Z,8.40
2022-10-14T12:02:11.719Z,8.00
2022-10-14T12:03:11.772Z,7.30
2022-10-14T12:04:11.706Z,7.00
2022-10-14T12:05:11.657Z,7.00
2022-10-14T12:06:11.763Z,7.10
2022-10-14T12:07:11.607Z,7.30
2022-10-14T12:08:11.608Z,7.30
2022-10-14T12:09:11.638Z,7.10
2022-10-14T12:10:11.610Z,6.70
2022-10-14T12:11:11.596Z,6.40
2022-10-14T12:12:11.604Z,6.70
2022-10-14T12:13:11.541Z,7.10
2022-10-14T12:14:11.547Z,7.60
2022-10-14T12:15:11.536Z,7.20
2022-10-14T12:16:11.669Z,6.80
2022-10-14T12:17:13.566Z,11.50
2022-10-14T12:18:11.470Z,7.00
2022-10-14T12:19:11.458Z,6.40
2022-10-14T12:20:11.470Z,7.50
2022-10-14T12:21:11.456Z,6.00
2022-10-14T12:22:11.447Z,6.50
2022-10-14T12:23:11.425Z,6.10
2022-10-14T12:24:12.058Z,6.10
2022-10-14T12:25:11.380Z,5.80
2022-10-14T12:26:11.405Z,6.20
2022-10-14T12:27:11.365Z,5.80
2022-10-14T12:28:11.344Z,6.30
2022-10-14T12:29:11.414Z,6.30
2022-10-14T12:30:11.330Z,5.90
2022-10-14T12:31:11.323Z,6.50
2022-10-14T12:32:11.290Z,6.50
2022-10-14T12:33:11.268Z,6.70
2022-10-14T12:34:11.297Z,7.00
2022-10-14T12:35:11.288Z,6.90
2022-10-14T12:36:11.260Z,6.90
2022-10-14T12:37:11.244Z,6.30
2022-10-14T12:38:11.250Z,6.90
2022-10-14T12:39:11.193Z,6.40
2022-10-14T12:40:11.184Z,6.20
2022-10-14T12:41:11.192Z,6.30
2022-10-14T12:42:11.198Z,5.90
2022-10-14T12:43:11.142Z,5.80
2022-10-14T12:44:11.150Z,6.40
2022-10-14T12:45:11.112Z,6.00
2022-10-14T12:46:11.126Z,6.40
2022-10-14T12:47:11.088Z,6.00
2022-10-14T12:48:11.147Z,6.20
2022-10-14T12:49:12.226Z,5.50
2022-10-14T12:50:11.087Z,6.00
2022-10-14T12:51:11.057Z,5.80
2022-10-14T12:52:11.044Z,5.80
2022-10-14T12:53:11.034Z,5.60
2022-10-14T12:54:11.008Z,5.60
2022-10-14T12:55:10.999Z,5.30
2022-10-14T12:56:10.990Z,5.20